Aviation Digital Data Service (ADDS)

Output produced by METARs form (1600 UTC 25 October 2014)
found at http://aviationweather.gov/adds/metars/
 
KLFT 251120Z 2512/2612 35005KT P6SM SKC